sensor_id;sensor_type;location;lat;lon;timestamp;P1;durP1;ratioP1;P2;durP2;ratioP2
54959;SDS011;40860;51.710;8.736;2022-10-22T00:00:59;8.20;;;5.03;;
54959;SDS011;40860;51.710;8.736;2022-10-22T00:05:02;6.53;;;5.70;;
54959;SDS011;40860;51.710;8.736;2022-10-22T00:09:05;7.18;;;5.70;;
54959;SDS011;40860;51.710;8.736;2022-10-22T00:13:10;11.05;;;6.25;;
54959;SDS011;40860;51.710;8.736;2022-10-22T00:17:13;9.45;;;6.70;;
54959;SDS011;40860;51.710;8.736;2022-10-22T00:21:16;7.40;;;6.15;;
54959;SDS011;40860;51.710;8.736;2022-10-22T00:25:19;10.07;;;6.68;;
54959;SDS011;40860;51.710;8.736;2022-10-22T00:29:23;9.98;;;5.90;;
54959;SDS011;40860;51.710;8.736;2022-10-22T00:33:27;9.50;;;5.03;;
54959;SDS011;40860;51.710;8.736;2022-10-22T00:37:30;6.20;;;4.10;;
54959;SDS011;40860;51.710;8.736;2022-10-22T00:41:33;8.10;;;5.53;;
54959;SDS011;40860;51.710;8.736;2022-10-22T00:45:38;6.38;;;4.80;;
54959;SDS011;40860;51.710;8.736;2022-10-22T00:49:41;4.80;;;4.40;;
54959;SDS011;40860;51.710;8.736;2022-10-22T00:53:45;9.05;;;4.80;;
54959;SDS011;40860;51.710;8.736;2022-10-22T00:57:51;6.75;;;4.53;;
54959;SDS011;40860;51.710;8.736;2022-10-22T01:01:56;6.60;;;5.10;;
54959;SDS011;40860;51.710;8.736;2022-10-22T01:05:59;4.75;;;4.20;;
54959;SDS011;40860;51.710;8.736;2022-10-22T01:10:06;6.38;;;3.08;;
54959;SDS011;40860;51.710;8.736;2022-10-22T01:14:16;3.28;;;1.90;;
54959;SDS011;40860;51.710;8.736;2022-10-22T01:18:30;3.85;;;1.92;;
54959;SDS011;40860;51.710;8.736;2022-10-22T01:22:39;3.50;;;2.33;;
54959;SDS011;40860;51.710;8.736;2022-10-22T01:26:49;4.90;;;3.53;;
54959;SDS011;40860;51.710;8.736;2022-10-22T01:31:01;7.30;;;3.90;;
54959;SDS011;40860;51.710;8.736;2022-10-22T01:35:07;7.43;;;4.30;;
54959;SDS011;40860;51.710;8.736;2022-10-22T01:39:12;7.90;;;4.30;;
54959;SDS011;40860;51.710;8.736;2022-10-22T01:43:17;5.80;;;4.00;;
54959;SDS011;40860;51.710;8.736;2022-10-22T01:47:24;10.02;;;4.55;;
54959;SDS011;40860;51.710;8.736;2022-10-22T01:51:42;6.38;;;4.20;;
54959;SDS011;40860;51.710;8.736;2022-10-22T01:56:00;6.45;;;4.43;;
54959;SDS011;40860;51.710;8.736;2022-10-22T02:00:14;6.38;;;4.50;;
54959;SDS011;40860;51.710;8.736;2022-10-22T02:04:22;8.38;;;4.10;;
54959;SDS011;40860;51.710;8.736;2022-10-22T02:08:31;9.98;;;4.50;;
54959;SDS011;40860;51.710;8.736;2022-10-22T02:12:36;7.95;;;4.30;;
54959;SDS011;40860;51.710;8.736;2022-10-22T02:16:42;4.65;;;4.25;;
54959;SDS011;40860;51.710;8.736;2022-10-22T02:20:49;8.02;;;3.83;;
54959;SDS011;40860;51.710;8.736;2022-10-22T02:24:52;6.20;;;4.78;;
54959;SDS011;40860;51.710;8.736;2022-10-22T02:28:56;7.97;;;4.40;;
54959;SDS011;40860;51.710;8.736;2022-10-22T02:33:03;6.18;;;4.20;;
54959;SDS011;40860;51.710;8.736;2022-10-22T02:37:14;6.00;;;4.78;;
54959;SDS011;40860;51.710;8.736;2022-10-22T02:41:18;6.70;;;4.75;;
54959;SDS011;40860;51.710;8.736;2022-10-22T02:45:21;5.53;;;4.40;;
54959;SDS011;40860;51.710;8.736;2022-10-22T02:49:24;5.97;;;4.38;;
54959;SDS011;40860;51.710;8.736;2022-10-22T02:53:28;7.63;;;4.40;;
54959;SDS011;40860;51.710;8.736;2022-10-22T02:57:31;7.13;;;4.75;;
54959;SDS011;40860;51.710;8.736;2022-10-22T03:01:35;8.43;;;4.53;;
54959;SDS011;40860;51.710;8.736;2022-10-22T03:05:38;5.82;;;4.55;;
54959;SDS011;40860;51.710;8.736;2022-10-22T03:09:42;4.95;;;4.32;;
54959;SDS011;40860;51.710;8.736;2022-10-22T03:13:47;6.97;;;5.00;;
54959;SDS011;40860;51.710;8.736;2022-10-22T03:17:52;7.80;;;4.78;;
54959;SDS011;40860;51.710;8.736;2022-10-22T03:21:56;5.10;;;4.60;;
54959;SDS011;40860;51.710;8.736;2022-10-22T03:26:03;6.97;;;4.63;;
54959;SDS011;40860;51.710;8.736;2022-10-22T03:30:08;4.90;;;4.45;;
54959;SDS011;40860;51.710;8.736;2022-10-22T03:34:12;6.68;;;4.88;;
54959;SDS011;40860;51.710;8.736;2022-10-22T03:38:15;7.00;;;4.75;;
54959;SDS011;40860;51.710;8.736;2022-10-22T03:42:19;6.43;;;4.20;;
54959;SDS011;40860;51.710;8.736;2022-10-22T03:46:22;4.57;;;4.18;;
54959;SDS011;40860;51.710;8.736;2022-10-22T03:50:25;5.57;;;4.30;;
54959;SDS011;40860;51.710;8.736;2022-10-22T03:54:28;6.10;;;4.50;;
54959;SDS011;40860;51.710;8.736;2022-10-22T03:58:32;8.05;;;4.32;;
54959;SDS011;40860;51.710;8.736;2022-10-22T04:02:35;5.45;;;4.32;;
54959;SDS011;40860;51.710;8.736;2022-10-22T04:06:38;10.25;;;4.35;;
54959;SDS011;40860;51.710;8.736;2022-10-22T04:10:41;6.63;;;4.75;;
54959;SDS011;40860;51.710;8.736;2022-10-22T04:14:45;9.73;;;4.53;;
54959;SDS011;40860;51.710;8.736;2022-10-22T04:18:48;5.90;;;4.15;;
54959;SDS011;40860;51.710;8.736;2022-10-22T04:22:51;8.52;;;4.40;;
54959;SDS011;40860;51.710;8.736;2022-10-22T04:26:54;7.00;;;4.05;;
54959;SDS011;40860;51.710;8.736;2022-10-22T04:30:59;6.90;;;4.30;;
54959;SDS011;40860;51.710;8.736;2022-10-22T04:35:02;5.13;;;4.53;;
54959;SDS011;40860;51.710;8.736;2022-10-22T04:39:05;14.38;;;5.15;;
54959;SDS011;40860;51.710;8.736;2022-10-22T04:43:08;7.63;;;4.25;;
54959;SDS011;40860;51.710;8.736;2022-10-22T04:47:13;4.80;;;4.20;;
54959;SDS011;40860;51.710;8.736;2022-10-22T04:51:16;7.30;;;4.18;;
54959;SDS011;40860;51.710;8.736;2022-10-22T04:55:20;7.55;;;4.47;;
54959;SDS011;40860;51.710;8.736;2022-10-22T04:59:23;6.50;;;4.32;;
54959;SDS011;40860;51.710;8.736;2022-10-22T05:03:27;6.40;;;4.43;;
54959;SDS011;40860;51.710;8.736;2022-10-22T05:07:30;7.32;;;4.72;;
54959;SDS011;40860;51.710;8.736;2022-10-22T05:11:34;4.93;;;3.78;;
54959;SDS011;40860;51.710;8.736;2022-10-22T05:15:38;5.82;;;4.53;;
54959;SDS011;40860;51.710;8.736;2022-10-22T05:19:42;7.95;;;4.43;;
54959;SDS011;40860;51.710;8.736;2022-10-22T05:23:45;5.60;;;3.75;;
54959;SDS011;40860;51.710;8.736;2022-10-22T05:27:49;7.28;;;3.45;;
54959;SDS011;40860;51.710;8.736;2022-10-22T05:31:52;4.25;;;3.22;;
54959;SDS011;40860;51.710;8.736;2022-10-22T05:35:56;5.43;;;2.97;;
54959;SDS011;40860;51.710;8.736;2022-10-22T05:39:59;4.32;;;2.88;;
54959;SDS011;40860;51.710;8.736;2022-10-22T05:44:19;4.97;;;2.65;;
54959;SDS011;40860;51.710;8.736;2022-10-22T05:48:22;7.47;;;2.72;;
54959;SDS011;40860;51.710;8.736;2022-10-22T05:52:26;3.67;;;2.38;;
54959;SDS011;40860;51.710;8.736;2022-10-22T05:56:29;9.52;;;3.80;;
54959;SDS011;40860;51.710;8.736;2022-10-22T06:00:33;5.05;;;3.38;;
54959;SDS011;40860;51.710;8.736;2022-10-22T06:04:36;6.97;;;3.40;;
54959;SDS011;40860;51.710;8.736;2022-10-22T06:08:40;5.22;;;3.17;;
54959;SDS011;40860;51.710;8.736;2022-10-22T06:12:43;8.50;;;3.47;;
54959;SDS011;40860;51.710;8.736;2022-10-22T06:16:46;11.60;;;3.65;;
54959;SDS011;40860;51.710;8.736;2022-10-22T06:20:49;5.13;;;3.70;;
54959;SDS011;40860;51.710;8.736;2022-10-22T06:24:53;7.22;;;3.92;;
54959;SDS011;40860;51.710;8.736;2022-10-22T06:28:56;4.93;;;3.72;;
54959;SDS011;40860;51.710;8.736;2022-10-22T06:32:59;5.68;;;3.92;;
54959;SDS011;40860;51.710;8.736;2022-10-22T06:37:02;7.80;;;3.90;;
54959;SDS011;40860;51.710;8.736;2022-10-22T06:41:07;10.05;;;4.10;;
54959;SDS011;40860;51.710;8.736;2022-10-22T06:45:11;7.88;;;4.05;;
54959;SDS011;40860;51.710;8.736;2022-10-22T06:49:14;7.75;;;4.28;;
54959;SDS011;40860;51.710;8.736;2022-10-22T06:53:17;6.63;;;4.43;;
54959;SDS011;40860;51.710;8.736;2022-10-22T06:57:22;5.72;;;3.80;;
54959;SDS011;40860;51.710;8.736;2022-10-22T07:01:26;9.30;;;4.45;;
54959;SDS011;40860;51.710;8.736;2022-10-22T07:05:32;8.18;;;4.38;;
54959;SDS011;40860;51.710;8.736;2022-10-22T07:09:35;6.85;;;4.60;;
54959;SDS011;40860;51.710;8.736;2022-10-22T07:13:40;11.65;;;4.95;;
54959;SDS011;40860;51.710;8.736;2022-10-22T07:17:44;10.52;;;5.65;;
54959;SDS011;40860;51.710;8.736;2022-10-22T07:21:47;12.00;;;5.97;;
54959;SDS011;40860;51.710;8.736;2022-10-22T07:25:49;8.80;;;5.70;;
54959;SDS011;40860;51.710;8.736;2022-10-22T07:29:54;8.75;;;5.53;;
54959;SDS011;40860;51.710;8.736;2022-10-22T07:34:01;11.68;;;5.40;;
54959;SDS011;40860;51.710;8.736;2022-10-22T07:38:04;6.72;;;4.63;;
54959;SDS011;40860;51.710;8.736;2022-10-22T07:42:07;8.98;;;5.50;;
54959;SDS011;40860;51.710;8.736;2022-10-22T07:46:12;9.68;;;5.47;;
54959;SDS011;40860;51.710;8.736;2022-10-22T07:50:15;7.15;;;5.65;;
54959;SDS011;40860;51.710;8.736;2022-10-22T07:54:18;8.15;;;4.55;;
54959;SDS011;40860;51.710;8.736;2022-10-22T07:58:21;6.53;;;4.50;;
54959;SDS011;40860;51.710;8.736;2022-10-22T08:02:27;6.10;;;3.70;;
54959;SDS011;40860;51.710;8.736;2022-10-22T08:06:30;6.43;;;3.88;;
54959;SDS011;40860;51.710;8.736;2022-10-22T08:10:33;6.93;;;3.80;;
54959;SDS011;40860;51.710;8.736;2022-10-22T08:14:36;8.75;;;3.85;;
54959;SDS011;40860;51.710;8.736;2022-10-22T08:18:40;5.60;;;3.42;;
54959;SDS011;40860;51.710;8.736;2022-10-22T08:22:44;6.32;;;3.30;;
54959;SDS011;40860;51.710;8.736;2022-10-22T08:26:47;4.50;;;3.35;;
54959;SDS011;40860;51.710;8.736;2022-10-22T08:30:50;6.32;;;3.40;;
54959;SDS011;40860;51.710;8.736;2022-10-22T08:34:55;7.25;;;3.17;;
54959;SDS011;40860;51.710;8.736;2022-10-22T08:38:57;5.28;;;3.28;;
54959;SDS011;40860;51.710;8.736;2022-10-22T08:43:05;4.50;;;3.08;;
54959;SDS011;40860;51.710;8.736;2022-10-22T08:47:33;4.57;;;3.17;;
54959;SDS011;40860;51.710;8.736;2022-10-22T08:51:55;5.25;;;3.35;;
54959;SDS011;40860;51.710;8.736;2022-10-22T08:55:59;4.70;;;3.38;;
54959;SDS011;40860;51.710;8.736;2022-10-22T09:00:03;6.57;;;3.30;;
54959;SDS011;40860;51.710;8.736;2022-10-22T09:04:09;7.18;;;2.67;;
54959;SDS011;40860;51.710;8.736;2022-10-22T09:08:21;4.68;;;2.67;;
54959;SDS011;40860;51.710;8.736;2022-10-22T09:12:24;4.95;;;2.97;;
54959;SDS011;40860;51.710;8.736;2022-10-22T09:16:32;6.70;;;2.80;;
54959;SDS011;40860;51.710;8.736;2022-10-22T09:20:41;6.18;;;2.95;;
54959;SDS011;40860;51.710;8.736;2022-10-22T09:24:51;5.63;;;2.63;;
54959;SDS011;40860;51.710;8.736;2022-10-22T09:29:01;5.78;;;2.55;;
54959;SDS011;40860;51.710;8.736;2022-10-22T09:33:09;4.70;;;2.63;;
54959;SDS011;40860;51.710;8.736;2022-10-22T09:37:16;5.18;;;2.60;;
54959;SDS011;40860;51.710;8.736;2022-10-22T09:41:24;7.80;;;2.70;;
54959;SDS011;40860;51.710;8.736;2022-10-22T09:45:29;9.63;;;2.63;;
54959;SDS011;40860;51.710;8.736;2022-10-22T09:49:34;4.78;;;2.28;;
54959;SDS011;40860;51.710;8.736;2022-10-22T09:53:38;8.63;;;2.47;;
54959;SDS011;40860;51.710;8.736;2022-10-22T09:57:46;6.30;;;2.42;;
54959;SDS011;40860;51.710;8.736;2022-10-22T10:01:58;6.60;;;2.10;;
54959;SDS011;40860;51.710;8.736;2022-10-22T10:06:21;7.60;;;2.35;;
54959;SDS011;40860;51.710;8.736;2022-10-22T10:10:26;7.78;;;2.72;;
54959;SDS011;40860;51.710;8.736;2022-10-22T10:14:42;6.28;;;2.40;;
54959;SDS011;40860;51.710;8.736;2022-10-22T10:18:54;6.05;;;2.60;;
54959;SDS011;40860;51.710;8.736;2022-10-22T10:23:13;6.57;;;2.75;;
54959;SDS011;40860;51.710;8.736;2022-10-22T10:27:30;5.05;;;2.10;;
54959;SDS011;40860;51.710;8.736;2022-10-22T10:31:41;4.97;;;2.08;;
54959;SDS011;40860;51.710;8.736;2022-10-22T10:35:54;5.35;;;2.28;;
54959;SDS011;40860;51.710;8.736;2022-10-22T10:40:10;6.05;;;2.05;;
54959;SDS011;40860;51.710;8.736;2022-10-22T10:44:40;7.07;;;2.65;;
54959;SDS011;40860;51.710;8.736;2022-10-22T10:48:55;6.40;;;2.05;;
54959;SDS011;40860;51.710;8.736;2022-10-22T10:53:02;5.22;;;2.13;;
54959;SDS011;40860;51.710;8.736;2022-10-22T10:57:18;7.03;;;2.50;;
54959;SDS011;40860;51.710;8.736;2022-10-22T11:01:26;7.95;;;2.03;;
54959;SDS011;40860;51.710;8.736;2022-10-22T11:05:38;9.02;;;3.03;;
54959;SDS011;40860;51.710;8.736;2022-10-22T11:09:44;4.30;;;2.65;;
54959;SDS011;40860;51.710;8.736;2022-10-22T11:13:52;7.18;;;2.47;;
54959;SDS011;40860;51.710;8.736;2022-10-22T11:18:01;8.02;;;3.05;;
54959;SDS011;40860;51.710;8.736;2022-10-22T11:22:10;8.85;;;3.38;;
54959;SDS011;40860;51.710;8.736;2022-10-22T11:26:27;8.18;;;3.00;;
54959;SDS011;40860;51.710;8.736;2022-10-22T11:30:39;9.48;;;3.03;;
54959;SDS011;40860;51.710;8.736;2022-10-22T11:34:45;7.95;;;2.97;;
54959;SDS011;40860;51.710;8.736;2022-10-22T11:38:53;10.52;;;2.42;;
54959;SDS011;40860;51.710;8.736;2022-10-22T11:42:57;5.85;;;2.50;;
54959;SDS011;40860;51.710;8.736;2022-10-22T11:47:07;7.47;;;3.00;;
54959;SDS011;40860;51.710;8.736;2022-10-22T11:51:28;11.00;;;3.42;;
54959;SDS011;40860;51.710;8.736;2022-10-22T11:55:42;8.35;;;3.40;;
54959;SDS011;40860;51.710;8.736;2022-10-22T11:59:51;6.30;;;3.15;;
54959;SDS011;40860;51.710;8.736;2022-10-22T12:04:14;6.47;;;3.00;;
54959;SDS011;40860;51.710;8.736;2022-10-22T12:08:20;7.50;;;3.38;;
54959;SDS011;40860;51.710;8.736;2022-10-22T12:12:33;12.93;;;4.18;;
54959;SDS011;40860;51.710;8.736;2022-10-22T12:16:42;9.32;;;3.90;;
54959;SDS011;40860;51.710;8.736;2022-10-22T12:21:02;6.30;;;3.28;;
54959;SDS011;40860;51.710;8.736;2022-10-22T12:25:08;10.60;;;3.97;;
54959;SDS011;40860;51.710;8.736;2022-10-22T12:29:19;5.78;;;3.10;;
54959;SDS011;40860;51.710;8.736;2022-10-22T12:33:25;8.02;;;3.30;;
54959;SDS011;40860;51.710;8.736;2022-10-22T12:37:33;6.80;;;3.10;;
54959;SDS011;40860;51.710;8.736;2022-10-22T12:41:36;5.47;;;2.90;;
54959;SDS011;40860;51.710;8.736;2022-10-22T12:45:43;5.88;;;2.63;;
54959;SDS011;40860;51.710;8.736;2022-10-22T12:49:48;6.90;;;2.83;;
54959;SDS011;40860;51.710;8.736;2022-10-22T12:53:52;5.90;;;2.90;;
54959;SDS011;40860;51.710;8.736;2022-10-22T12:57:57;7.30;;;3.22;;
54959;SDS011;40860;51.710;8.736;2022-10-22T13:02:02;6.63;;;3.45;;
54959;SDS011;40860;51.710;8.736;2022-10-22T13:06:19;5.43;;;3.20;;
54959;SDS011;40860;51.710;8.736;2022-10-22T13:10:25;8.30;;;3.22;;
54959;SDS011;40860;51.710;8.736;2022-10-22T13:14:33;8.63;;;3.35;;
54959;SDS011;40860;51.710;8.736;2022-10-22T13:18:40;6.18;;;3.45;;
54959;SDS011;40860;51.710;8.736;2022-10-22T13:22:53;5.88;;;3.00;;
54959;SDS011;40860;51.710;8.736;2022-10-22T13:27:00;6.93;;;3.15;;
54959;SDS011;40860;51.710;8.736;2022-10-22T13:31:07;4.28;;;2.92;;
54959;SDS011;40860;51.710;8.736;2022-10-22T13:35:14;6.47;;;2.90;;
54959;SDS011;40860;51.710;8.736;2022-10-22T13:39:20;5.93;;;3.17;;
54959;SDS011;40860;51.710;8.736;2022-10-22T13:43:24;7.70;;;3.80;;
54959;SDS011;40860;51.710;8.736;2022-10-22T13:47:27;5.53;;;3.10;;
54959;SDS011;40860;51.710;8.736;2022-10-22T13:51:32;6.43;;;3.70;;
54959;SDS011;40860;51.710;8.736;2022-10-22T13:55:36;6.32;;;3.25;;
54959;SDS011;40860;51.710;8.736;2022-10-22T13:59:39;7.85;;;4.10;;
54959;SDS011;40860;51.710;8.736;2022-10-22T14:03:42;8.18;;;4.30;;
54959;SDS011;40860;51.710;8.736;2022-10-22T14:07:46;6.63;;;4.65;;
54959;SDS011;40860;51.710;8.736;2022-10-22T14:11:49;7.93;;;3.55;;
54959;SDS011;40860;51.710;8.736;2022-10-22T14:15:52;7.28;;;2.90;;
54959;SDS011;40860;51.710;8.736;2022-10-22T14:24:10;3.80;;;2.92;;
54959;SDS011;40860;51.710;8.736;2022-10-22T14:28:13;6.03;;;3.63;;
54959;SDS011;40860;51.710;8.736;2022-10-22T14:32:17;4.07;;;3.20;;
54959;SDS011;40860;51.710;8.736;2022-10-22T14:36:21;5.68;;;3.65;;
54959;SDS011;40860;51.710;8.736;2022-10-22T14:40:25;7.40;;;3.90;;
54959;SDS011;40860;51.710;8.736;2022-10-22T14:44:28;8.15;;;4.90;;
54959;SDS011;40860;51.710;8.736;2022-10-22T14:48:31;6.60;;;4.30;;
54959;SDS011;40860;51.710;8.736;2022-10-22T14:52:34;7.32;;;4.07;;
54959;SDS011;40860;51.710;8.736;2022-10-22T14:56:38;4.65;;;3.70;;
54959;SDS011;40860;51.710;8.736;2022-10-22T15:00:41;6.50;;;3.72;;
54959;SDS011;40860;51.710;8.736;2022-10-22T15:04:44;5.63;;;3.38;;
54959;SDS011;40860;51.710;8.736;2022-10-22T15:08:47;5.07;;;3.70;;
54959;SDS011;40860;51.710;8.736;2022-10-22T15:12:52;4.65;;;3.15;;
54959;SDS011;40860;51.710;8.736;2022-10-22T15:16:56;5.13;;;3.33;;
54959;SDS011;40860;51.710;8.736;2022-10-22T15:21:00;4.88;;;3.30;;
54959;SDS011;40860;51.710;8.736;2022-10-22T15:25:05;5.45;;;3.75;;
54959;SDS011;40860;51.710;8.736;2022-10-22T15:29:11;5.05;;;3.03;;
54959;SDS011;40860;51.710;8.736;2022-10-22T15:33:14;4.40;;;2.67;;
54959;SDS011;40860;51.710;8.736;2022-10-22T15:37:16;4.57;;;3.17;;
54959;SDS011;40860;51.710;8.736;2022-10-22T15:41:19;6.30;;;2.95;;
54959;SDS011;40860;51.710;8.736;2022-10-22T15:45:23;5.55;;;2.72;;
54959;SDS011;40860;51.710;8.736;2022-10-22T15:49:26;5.30;;;2.75;;
54959;SDS011;40860;51.710;8.736;2022-10-22T15:53:29;5.63;;;2.80;;
54959;SDS011;40860;51.710;8.736;2022-10-22T15:57:32;4.22;;;2.58;;
54959;SDS011;40860;51.710;8.736;2022-10-22T16:01:37;5.80;;;2.13;;
54959;SDS011;40860;51.710;8.736;2022-10-22T16:05:40;2.95;;;2.05;;
54959;SDS011;40860;51.710;8.736;2022-10-22T16:09:53;3.65;;;2.03;;
54959;SDS011;40860;51.710;8.736;2022-10-22T16:13:57;4.38;;;2.03;;
54959;SDS011;40860;51.710;8.736;2022-10-22T16:18:02;2.20;;;1.77;;
54959;SDS011;40860;51.710;8.736;2022-10-22T16:22:06;9.45;;;2.35;;
54959;SDS011;40860;51.710;8.736;2022-10-22T16:26:10;6.65;;;2.50;;
54959;SDS011;40860;51.710;8.736;2022-10-22T16:30:14;5.53;;;2.85;;
54959;SDS011;40860;51.710;8.736;2022-10-22T16:34:19;4.50;;;2.40;;
54959;SDS011;40860;51.710;8.736;2022-10-22T16:38:22;5.80;;;2.65;;
54959;SDS011;40860;51.710;8.736;2022-10-22T16:42:25;4.00;;;2.20;;
54959;SDS011;40860;51.710;8.736;2022-10-22T16:46:28;3.80;;;2.55;;
54959;SDS011;40860;51.710;8.736;2022-10-22T16:50:33;5.40;;;2.88;;
54959;SDS011;40860;51.710;8.736;2022-10-22T16:54:36;6.35;;;2.75;;
54959;SDS011;40860;51.710;8.736;2022-10-22T16:58:42;5.32;;;2.53;;
54959;SDS011;40860;51.710;8.736;2022-10-22T17:02:49;6.55;;;2.92;;
54959;SDS011;40860;51.710;8.736;2022-10-22T17:06:54;5.50;;;2.47;;
54959;SDS011;40860;51.710;8.736;2022-10-22T17:10:57;7.28;;;2.70;;
54959;SDS011;40860;51.710;8.736;2022-10-22T17:15:09;4.13;;;2.20;;
54959;SDS011;40860;51.710;8.736;2022-10-22T17:19:12;6.82;;;2.92;;
54959;SDS011;40860;51.710;8.736;2022-10-22T17:23:17;6.35;;;2.92;;
54959;SDS011;40860;51.710;8.736;2022-10-22T17:27:20;6.93;;;3.47;;
54959;SDS011;40860;51.710;8.736;2022-10-22T17:31:23;9.48;;;4.10;;
54959;SDS011;40860;51.710;8.736;2022-10-22T17:35:29;12.93;;;7.60;;
54959;SDS011;40860;51.710;8.736;2022-10-22T17:39:33;10.68;;;5.10;;
54959;SDS011;40860;51.710;8.736;2022-10-22T17:43:36;8.10;;;3.92;;
54959;SDS011;40860;51.710;8.736;2022-10-22T17:47:39;7.22;;;3.63;;
54959;SDS011;40860;51.710;8.736;2022-10-22T17:51:43;6.78;;;4.00;;
54959;SDS011;40860;51.710;8.736;2022-10-22T17:55:47;11.32;;;4.80;;
54959;SDS011;40860;51.710;8.736;2022-10-22T17:59:50;7.05;;;4.45;;
54959;SDS011;40860;51.710;8.736;2022-10-22T18:03:53;6.57;;;4.57;;
54959;SDS011;40860;51.710;8.736;2022-10-22T18:08:00;11.32;;;3.85;;
54959;SDS011;40860;51.710;8.736;2022-10-22T18:12:09;3.30;;;2.30;;
54959;SDS011;40860;51.710;8.736;2022-10-22T18:16:14;6.60;;;1.92;;
54959;SDS011;40860;51.710;8.736;2022-10-22T18:20:16;6.28;;;1.92;;
54959;SDS011;40860;51.710;8.736;2022-10-22T18:24:19;3.72;;;1.60;;
54959;SDS011;40860;51.710;8.736;2022-10-22T18:28:24;5.43;;;2.08;;
54959;SDS011;40860;51.710;8.736;2022-10-22T18:32:27;3.10;;;1.60;;
54959;SDS011;40860;51.710;8.736;2022-10-22T18:36:30;4.57;;;1.40;;
54959;SDS011;40860;51.710;8.736;2022-10-22T18:40:33;6.85;;;2.83;;
54959;SDS011;40860;51.710;8.736;2022-10-22T18:44:37;4.35;;;1.40;;
54959;SDS011;40860;51.710;8.736;2022-10-22T18:48:41;6.30;;;2.97;;
54959;SDS011;40860;51.710;8.736;2022-10-22T18:52:43;4.55;;;1.38;;
54959;SDS011;40860;51.710;8.736;2022-10-22T18:56:46;6.55;;;1.67;;
54959;SDS011;40860;51.710;8.736;2022-10-22T19:00:51;5.43;;;1.52;;
54959;SDS011;40860;51.710;8.736;2022-10-22T19:04:54;3.97;;;1.65;;
54959;SDS011;40860;51.710;8.736;2022-10-22T19:08:57;4.63;;;1.75;;
54959;SDS011;40860;51.710;8.736;2022-10-22T19:13:03;8.93;;;1.70;;
54959;SDS011;40860;51.710;8.736;2022-10-22T19:17:10;4.53;;;1.65;;
54959;SDS011;40860;51.710;8.736;2022-10-22T19:21:13;8.43;;;2.50;;
54959;SDS011;40860;51.710;8.736;2022-10-22T19:25:17;6.07;;;1.80;;
54959;SDS011;40860;51.710;8.736;2022-10-22T19:29:20;9.95;;;2.30;;
54959;SDS011;40860;51.710;8.736;2022-10-22T19:33:24;6.95;;;2.47;;
54959;SDS011;40860;51.710;8.736;2022-10-22T19:37:27;5.88;;;2.15;;
54959;SDS011;40860;51.710;8.736;2022-10-22T19:41:31;3.65;;;2.15;;
54959;SDS011;40860;51.710;8.736;2022-10-22T19:45:34;6.43;;;2.40;;
54959;SDS011;40860;51.710;8.736;2022-10-22T19:49:41;5.28;;;2.83;;
54959;SDS011;40860;51.710;8.736;2022-10-22T19:53:44;5.82;;;3.30;;
54959;SDS011;40860;51.710;8.736;2022-10-22T19:57:48;6.45;;;2.25;;
54959;SDS011;40860;51.710;8.736;2022-10-22T20:01:50;7.32;;;2.50;;
54959;SDS011;40860;51.710;8.736;2022-10-22T20:05:55;4.93;;;2.28;;
54959;SDS011;40860;51.710;8.736;2022-10-22T20:09:58;6.35;;;2.25;;
54959;SDS011;40860;51.710;8.736;2022-10-22T20:14:01;6.35;;;2.70;;
54959;SDS011;40860;51.710;8.736;2022-10-22T20:18:03;6.45;;;2.00;;
54959;SDS011;40860;51.710;8.736;2022-10-22T20:22:08;4.15;;;2.38;;
54959;SDS011;40860;51.710;8.736;2022-10-22T20:26:15;5.65;;;2.22;;
54959;SDS011;40860;51.710;8.736;2022-10-22T20:30:18;6.70;;;2.10;;
54959;SDS011;40860;51.710;8.736;2022-10-22T20:34:22;4.22;;;1.92;;
54959;SDS011;40860;51.710;8.736;2022-10-22T20:38:26;6.38;;;2.00;;
54959;SDS011;40860;51.710;8.736;2022-10-22T20:42:30;4.13;;;1.88;;
54959;SDS011;40860;51.710;8.736;2022-10-22T20:46:33;7.32;;;2.10;;
54959;SDS011;40860;51.710;8.736;2022-10-22T20:50:36;5.47;;;1.95;;
54959;SDS011;40860;51.710;8.736;2022-10-22T20:54:41;5.32;;;2.20;;
54959;SDS011;40860;51.710;8.736;2022-10-22T20:58:45;6.80;;;3.50;;
54959;SDS011;40860;51.710;8.736;2022-10-22T21:02:49;3.72;;;2.22;;
54959;SDS011;40860;51.710;8.736;2022-10-22T21:06:52;8.95;;;2.13;;
54959;SDS011;40860;51.710;8.736;2022-10-22T21:10:56;5.10;;;1.95;;
54959;SDS011;40860;51.710;8.736;2022-10-22T21:14:59;4.90;;;1.75;;
54959;SDS011;40860;51.710;8.736;2022-10-22T21:19:02;3.85;;;2.00;;
54959;SDS011;40860;51.710;8.736;2022-10-22T21:23:05;5.55;;;1.80;;
54959;SDS011;40860;51.710;8.736;2022-10-22T21:27:09;7.20;;;1.90;;
54959;SDS011;40860;51.710;8.736;2022-10-22T21:31:13;3.25;;;1.77;;
54959;SDS011;40860;51.710;8.736;2022-10-22T21:35:21;7.10;;;4.25;;
54959;SDS011;40860;51.710;8.736;2022-10-22T21:39:24;4.78;;;1.65;;
54959;SDS011;40860;51.710;8.736;2022-10-22T21:43:28;6.43;;;1.80;;
54959;SDS011;40860;51.710;8.736;2022-10-22T21:47:31;5.88;;;1.88;;
54959;SDS011;40860;51.710;8.736;2022-10-22T21:51:34;5.75;;;1.92;;
54959;SDS011;40860;51.710;8.736;2022-10-22T21:55:38;4.25;;;1.67;;
54959;SDS011;40860;51.710;8.736;2022-10-22T21:59:43;4.38;;;1.67;;
54959;SDS011;40860;51.710;8.736;2022-10-22T22:03:46;5.43;;;1.55;;
54959;SDS011;40860;51.710;8.736;2022-10-22T22:07:50;4.60;;;1.52;;
54959;SDS011;40860;51.710;8.736;2022-10-22T22:11:53;4.90;;;1.73;;
54959;SDS011;40860;51.710;8.736;2022-10-22T22:16:01;5.20;;;1.63;;
54959;SDS011;40860;51.710;8.736;2022-10-22T22:20:06;4.50;;;1.52;;
54959;SDS011;40860;51.710;8.736;2022-10-22T22:24:10;6.03;;;1.88;;
54959;SDS011;40860;51.710;8.736;2022-10-22T22:28:14;8.23;;;1.77;;
54959;SDS011;40860;51.710;8.736;2022-10-22T22:32:18;4.43;;;1.63;;
54959;SDS011;40860;51.710;8.736;2022-10-22T22:36:21;6.88;;;1.60;;
54959;SDS011;40860;51.710;8.736;2022-10-22T22:40:24;6.40;;;1.75;;
54959;SDS011;40860;51.710;8.736;2022-10-22T22:44:31;4.60;;;1.60;;
54959;SDS011;40860;51.710;8.736;2022-10-22T22:48:35;7.60;;;2.08;;
54959;SDS011;40860;51.710;8.736;2022-10-22T22:52:38;4.45;;;1.83;;
54959;SDS011;40860;51.710;8.736;2022-10-22T22:56:42;7.97;;;1.92;;
54959;SDS011;40860;51.710;8.736;2022-10-22T23:00:44;3.53;;;1.70;;
54959;SDS011;40860;51.710;8.736;2022-10-22T23:04:49;5.72;;;1.60;;
54959;SDS011;40860;51.710;8.736;2022-10-22T23:08:52;22.88;;;11.85;;
54959;SDS011;40860;51.710;8.736;2022-10-22T23:12:55;5.97;;;2.70;;
54959;SDS011;40860;51.710;8.736;2022-10-22T23:16:58;7.43;;;2.15;;
54959;SDS011;40860;51.710;8.736;2022-10-22T23:21:05;9.63;;;2.67;;
54959;SDS011;40860;51.710;8.736;2022-10-22T23:25:12;5.15;;;2.60;;
54959;SDS011;40860;51.710;8.736;2022-10-22T23:29:15;6.28;;;2.40;;
54959;SDS011;40860;51.710;8.736;2022-10-22T23:33:19;9.27;;;2.60;;
54959;SDS011;40860;51.710;8.736;2022-10-22T23:37:24;9.05;;;2.25;;
54959;SDS011;40860;51.710;8.736;2022-10-22T23:41:27;6.45;;;2.05;;
54959;SDS011;40860;51.710;8.736;2022-10-22T23:45:32;6.95;;;2.30;;
54959;SDS011;40860;51.710;8.736;2022-10-22T23:49:35;8.77;;;2.50;;
54959;SDS011;40860;51.710;8.736;2022-10-22T23:53:39;7.65;;;2.22;;
54959;SDS011;40860;51.710;8.736;2022-10-22T23:57:43;5.95;;;2.33;;
